Terminal Aerodrome Forecast
Issued by NWS Pueblo, CO

Home | Current Version | Previous Version | Text Only | Print | Product List | Glossary On
Versions: 1 2 3 4 5 6 7 8 9 10 11 12 13 14 15 16 17 18 19 20 21 22 23 24 25 26 27 28 29 30 31 32 33 34 35 36
000
FTUS45 KPUB 250140 AAB
TAFPUB
TAF AMD
KPUB 250140Z 2502/2524 15009KT P6SM SCT100 BKN120
      TEMPO 2502/2505 VRB22G32KT -TSRA BKN090CB
     FM250500 30008KT P6SM SCT100 BKN150
     FM250600 VRB06KT P6SM SCT150
     FM252000 11012KT P6SM FEW100 SCT150=

USA.gov is the U.S. government's official web portal to all federal, state and local government web resources and services.